Terminal Aerodrome Forecast
Issued by NWS

Home | Current Version | Previous Version | Text Only | Print | Product List | Glossary On
Versions: 1 2 3 4 5 6 7 8 9 10 11 12 13 14 15 16 17 18 19 20 21
000
FTUS43 KDLH 302333
TAFHYR
TAF
KHYR 302333Z 3100/3124 27011KT P6SM SCT080
     FM310100 27007KT P6SM SCT080
     FM311600 28011G17KT P6SM SCT070=

USA.gov is the U.S. government's official web portal to all federal, state and local government web resources and services.